createdAt,value
2019-01-03T00:00:25.182Z,17.23
2019-01-03T00:03:23.519Z,10.13
2019-01-03T00:06:12.270Z,12.57
2019-01-03T00:08:57.820Z,22.50
2019-01-03T00:11:59.254Z,16.97
2019-01-03T00:14:48.452Z,11.73
2019-01-03T00:17:37.603Z,13.03
2019-01-03T00:20:20.606Z,11.60
2019-01-03T00:23:09.928Z,14.20
2019-01-03T00:26:14.053Z,11.23
2019-01-03T00:29:01.674Z,14.17
2019-01-03T00:32:02.952Z,17.07
2019-01-03T00:34:50.817Z,12.40
2019-01-03T00:37:49.140Z,11.67
2019-01-03T00:40:46.471Z,11.37
2019-01-03T00:43:38.322Z,10.83
2019-01-03T00:46:27.496Z,11.23
2019-01-03T00:49:16.803Z,11.07
2019-01-03T00:52:04.687Z,11.07
2019-01-03T00:54:59.886Z,14.10
2019-01-03T00:58:01.395Z,15.67
2019-01-03T01:00:49.252Z,15.00
2019-01-03T01:03:44.281Z,13.47
2019-01-03T01:06:33.522Z,13.30
2019-01-03T01:09:21.649Z,7.37
2019-01-03T01:12:09.019Z,8.70
2019-01-03T01:14:55.737Z,13.37
2019-01-03T01:17:41.993Z,10.07
2019-01-03T01:20:30.277Z,10.93
2019-01-03T01:23:18.561Z,6.83
2019-01-03T01:26:19.722Z,10.77
2019-01-03T01:29:20.790Z,10.60
2019-01-03T01:32:19.023Z,10.17
2019-01-03T01:35:07.049Z,9.40
2019-01-03T01:38:05.717Z,9.90
2019-01-03T01:40:55.701Z,9.63
2019-01-03T01:43:47.890Z,6.63
2019-01-03T01:46:40.065Z,11.67
2019-01-03T01:49:36.566Z,10.03
2019-01-03T01:52:25.743Z,11.07
2019-01-03T01:55:14.982Z,12.97
2019-01-03T01:58:02.969Z,9.10
2019-01-03T02:00:58.218Z,6.00
2019-01-03T02:03:56.238Z,11.57
2019-01-03T02:06:52.153Z,8.83
2019-01-03T02:09:56.186Z,4.47
2019-01-03T02:12:47.257Z,9.80
2019-01-03T02:15:40.989Z,8.17
2019-01-03T02:18:28.747Z,11.07
2019-01-03T02:21:18.418Z,10.80
2019-01-03T02:24:06.538Z,5.40
2019-01-03T02:26:54.777Z,9.73
2019-01-03T02:29:43.810Z,7.73
2019-01-03T02:32:35.994Z,6.60
2019-01-03T02:35:28.262Z,7.67
2019-01-03T02:38:16.274Z,9.40
2019-01-03T02:41:08.062Z,6.87
2019-01-03T02:44:15.532Z,6.87
2019-01-03T02:47:04.677Z,10.13
2019-01-03T02:49:52.584Z,12.77
2019-01-03T02:52:53.820Z,12.07
2019-01-03T02:55:48.545Z,8.47
2019-01-03T02:58:37.766Z,15.23
2019-01-03T03:01:25.064Z,7.63
2019-01-03T03:04:17.192Z,11.80
2019-01-03T03:07:24.662Z,13.10
2019-01-03T03:10:14.421Z,7.07
2019-01-03T03:12:54.998Z,10.17
2019-01-03T03:15:44.193Z,8.83
2019-01-03T03:18:33.374Z,8.83
2019-01-03T03:21:21.374Z,8.57
2019-01-03T03:24:10.575Z,11.23
2019-01-03T03:26:58.216Z,9.17
2019-01-03T03:29:50.622Z,15.73
2019-01-03T03:32:38.445Z,7.83
2019-01-03T03:35:31.924Z,4.90
2019-01-03T03:38:19.806Z,9.83
2019-01-03T03:41:24.253Z,8.33
2019-01-03T03:44:22.269Z,8.60
2019-01-03T03:47:17.302Z,9.67
2019-01-03T03:50:04.878Z,6.83
2019-01-03T03:53:02.754Z,11.63
2019-01-03T03:55:50.622Z,11.77
2019-01-03T03:58:42.774Z,13.10
2019-01-03T04:01:50.117Z,6.60
2019-01-03T04:04:38.002Z,5.73
2019-01-03T04:07:25.667Z,11.23
2019-01-03T04:10:09.761Z,8.33
2019-01-03T04:13:11.249Z,8.87
2019-01-03T04:16:06.523Z,5.37
2019-01-03T04:18:55.772Z,8.80
2019-01-03T04:21:44.054Z,8.03
2019-01-03T04:24:51.683Z,10.37
2019-01-03T04:27:40.898Z,11.70
2019-01-03T04:30:35.881Z,8.97
2019-01-03T04:33:23.926Z,7.93
2019-01-03T04:36:04.381Z,10.20
2019-01-03T04:38:56.610Z,5.03
2019-01-03T04:41:48.889Z,11.43
2019-01-03T04:44:47.310Z,16.40
2019-01-03T04:47:31.775Z,17.13
2019-01-03T04:50:26.735Z,12.63
2019-01-03T04:53:23.481Z,13.67
2019-01-03T04:56:31.206Z,10.60
2019-01-03T04:59:15.338Z,10.07
2019-01-03T05:02:24.154Z,5.97
2019-01-03T05:05:18.006Z,9.77
2019-01-03T05:08:05.680Z,12.40
2019-01-03T05:10:53.392Z,9.93
2019-01-03T05:13:41.141Z,11.27
2019-01-03T05:16:28.850Z,11.73
2019-01-03T05:19:17.389Z,8.70
2019-01-03T05:22:15.628Z,8.87
2019-01-03T05:25:14.030Z,7.37
2019-01-03T05:28:07.393Z,13.60
2019-01-03T05:31:05.731Z,9.77
2019-01-03T05:33:44.067Z,9.23
2019-01-03T05:36:51.810Z,12.27
2019-01-03T05:39:52.957Z,11.10
2019-01-03T05:42:47.783Z,8.20
2019-01-03T05:45:34.911Z,8.37
2019-01-03T05:48:30.238Z,8.63
2019-01-03T05:51:35.073Z,9.03
2019-01-03T05:54:25.094Z,6.77
2019-01-03T05:57:32.602Z,10.50
2019-01-03T06:00:21.712Z,11.23
2019-01-03T06:03:03.922Z,15.90
2019-01-03T06:05:50.648Z,11.73
2019-01-03T06:08:49.159Z,12.53
2019-01-03T06:11:45.522Z,12.83
2019-01-03T06:14:34.093Z,15.50
2019-01-03T06:17:23.277Z,11.10
2019-01-03T06:20:18.567Z,13.57
2019-01-03T06:23:10.459Z,16.80
2019-01-03T06:26:08.513Z,11.15
2019-01-03T06:29:00.303Z,13.77
2019-01-03T06:31:49.446Z,12.77
2019-01-03T06:34:44.485Z,11.03
2019-01-03T06:37:27.877Z,11.90
2019-01-03T06:40:16.987Z,10.03
2019-01-03T06:43:15.333Z,17.47
2019-01-03T06:46:16.536Z,8.47
2019-01-03T06:49:14.995Z,12.83
2019-01-03T06:52:22.326Z,9.47
2019-01-03T06:55:10.273Z,10.60
2019-01-03T06:58:05.775Z,15.63
2019-01-03T07:01:00.684Z,12.60
2019-01-03T07:03:48.834Z,12.30
2019-01-03T07:06:49.983Z,14.57
2019-01-03T07:09:48.282Z,8.33
2019-01-03T07:12:49.130Z,12.77
2019-01-03T07:15:36.987Z,12.03
2019-01-03T07:18:25.113Z,10.63
2019-01-03T07:21:10.981Z,11.47
2019-01-03T07:23:58.877Z,12.50
2019-01-03T07:26:46.701Z,14.40
2019-01-03T07:29:34.954Z,15.17
2019-01-03T07:32:27.022Z,11.97
2019-01-03T07:35:20.418Z,14.03
2019-01-03T07:38:15.715Z,13.70
2019-01-03T07:41:04.862Z,13.87
2019-01-03T07:43:48.066Z,12.37
2019-01-03T07:46:36.310Z,9.87
2019-01-03T07:49:34.749Z,13.13
2019-01-03T07:52:24.042Z,12.60
2019-01-03T07:55:25.370Z,16.87
2019-01-03T07:58:16.666Z,11.93
2019-01-03T08:01:04.761Z,9.60
2019-01-03T08:03:54.037Z,9.10
2019-01-03T08:06:47.336Z,10.47
2019-01-03T08:09:48.749Z,14.40
2019-01-03T08:12:53.363Z,11.30
2019-01-03T08:15:41.261Z,15.47
2019-01-03T08:18:33.178Z,16.63
2019-01-03T08:21:28.982Z,15.67
2019-01-03T08:24:17.010Z,12.50
2019-01-03T08:27:06.210Z,14.87
2019-01-03T08:30:01.701Z,14.00
2019-01-03T08:32:48.061Z,14.47
2019-01-03T08:35:36.364Z,18.17
2019-01-03T08:38:28.276Z,11.93
2019-01-03T08:41:26.513Z,12.30
2019-01-03T08:44:34.106Z,8.90
2019-01-03T08:47:35.126Z,9.83
2019-01-03T08:50:18.204Z,10.27
2019-01-03T08:53:05.801Z,10.27
2019-01-03T08:55:53.649Z,6.90
2019-01-03T08:58:47.606Z,9.30
2019-01-03T09:01:46.762Z,8.13
2019-01-03T09:04:35.889Z,13.37
2019-01-03T09:07:31.035Z,13.90
2019-01-03T09:10:29.109Z,200.40
2019-01-03T09:13:26.086Z,118.97
2019-01-03T09:16:24.773Z,40.20
2019-01-03T09:19:12.875Z,837.40
2019-01-03T09:21:56.662Z,742.30
2019-01-03T09:24:54.982Z,1101.47
2019-01-03T09:27:42.346Z,69.13
2019-01-03T09:30:31.502Z,115.77
2019-01-03T09:33:22.497Z,231.57
2019-01-03T09:36:10.386Z,462.23
2019-01-03T09:39:05.633Z,418.67
2019-01-03T09:41:54.986Z,100.97
2019-01-03T09:44:44.090Z,57.23
2019-01-03T09:47:14.301Z,153.80
2019-01-03T09:49:44.516Z,84.43
2019-01-03T09:52:14.745Z,43.30
2019-01-03T09:54:44.909Z,119.37
2019-01-03T09:57:16.164Z,107.30
2019-01-03T09:59:46.429Z,40.13
2019-01-03T10:02:16.645Z,47.80
2019-01-03T10:04:46.838Z,43.40
2019-01-03T10:07:17.817Z,23.97
2019-01-03T10:09:47.966Z,19.67
2019-01-03T10:12:18.160Z,23.40
2019-01-03T10:14:48.319Z,47.50
2019-01-03T10:17:18.478Z,30.13
2019-01-03T10:19:48.894Z,14.13
2019-01-03T10:22:19.190Z,16.30
2019-01-03T10:24:49.526Z,19.23
2019-01-03T10:27:19.710Z,5.20
2019-01-03T10:29:49.902Z,9.17
2019-01-03T10:32:20.094Z,9.17
2019-01-03T10:34:50.230Z,10.23
2019-01-03T10:37:20.523Z,12.67
2019-01-03T10:39:50.782Z,8.10
2019-01-03T10:42:21.916Z,10.87
2019-01-03T10:44:52.132Z,16.60
2019-01-03T10:47:22.293Z,13.30
2019-01-03T10:49:52.561Z,17.37
2019-01-03T10:52:22.766Z,15.17
2019-01-03T10:54:53.022Z,25.17
2019-01-03T10:57:23.285Z,25.07
2019-01-03T10:59:53.826Z,35.27
2019-01-03T11:02:24.134Z,32.03
2019-01-03T11:04:54.602Z,29.13
2019-01-03T11:07:24.914Z,11.37
2019-01-03T11:09:55.240Z,22.47
2019-01-03T11:12:25.382Z,11.23
2019-01-03T11:14:55.765Z,17.30
2019-01-03T11:17:26.035Z,10.43
2019-01-03T11:19:56.321Z,6.47
2019-01-03T11:22:26.605Z,5.10
2019-01-03T11:24:56.804Z,9.67
2019-01-03T11:27:27.062Z,15.17
2019-01-03T11:29:57.359Z,11.70
2019-01-03T11:32:27.550Z,11.13
2019-01-03T11:34:57.784Z,9.10
2019-01-03T11:37:28.071Z,9.57
2019-01-03T11:39:58.306Z,7.77
2019-01-03T11:42:29.482Z,12.90
2019-01-03T11:44:59.877Z,9.67
2019-01-03T11:47:30.053Z,7.43
2019-01-03T11:50:00.466Z,6.57
2019-01-03T11:52:30.676Z,5.57
2019-01-03T11:55:00.848Z,7.40
2019-01-03T11:57:31.160Z,8.00
2019-01-03T12:00:01.586Z,5.40
2019-01-03T12:02:31.978Z,5.23
2019-01-03T12:05:02.241Z,5.83
2019-01-03T12:07:32.457Z,8.50
2019-01-03T12:10:02.713Z,5.93
2019-01-03T12:12:32.899Z,6.67
2019-01-03T12:15:03.102Z,5.80
2019-01-03T12:17:33.478Z,9.00
2019-01-03T12:20:03.874Z,5.67
2019-01-03T12:22:34.070Z,6.10
2019-01-03T12:25:04.325Z,6.83
2019-01-03T12:27:34.500Z,7.13
2019-01-03T12:30:05.039Z,7.37
2019-01-03T12:32:35.209Z,6.83
2019-01-03T12:35:05.670Z,8.80
2019-01-03T12:37:36.015Z,6.43
2019-01-03T12:40:06.657Z,8.73
2019-01-03T12:42:37.792Z,8.10
2019-01-03T12:45:08.541Z,8.07
2019-01-03T12:47:38.810Z,6.03
2019-01-03T12:50:11.131Z,5.87
2019-01-03T12:52:41.362Z,4.37
2019-01-03T12:55:11.918Z,6.43
2019-01-03T12:57:42.151Z,6.43
2019-01-03T13:00:13.338Z,5.27
2019-01-03T13:02:43.652Z,13.50
2019-01-03T13:05:13.933Z,8.10
2019-01-03T13:07:44.292Z,7.77
2019-01-03T13:10:14.548Z,8.63
2019-01-03T13:12:44.688Z,6.00
2019-01-03T13:15:14.874Z,10.03
2019-01-03T13:17:45.226Z,7.30
2019-01-03T13:20:15.434Z,8.80
2019-01-03T13:22:45.585Z,11.53
2019-01-03T13:25:15.778Z,8.03
2019-01-03T13:27:46.028Z,6.77
2019-01-03T13:30:16.242Z,7.77
2019-01-03T13:32:46.471Z,11.80
2019-01-03T13:35:17.061Z,30.83
2019-01-03T13:37:47.378Z,39.30
2019-01-03T13:40:17.582Z,42.77
2019-01-03T13:42:47.980Z,49.33
2019-01-03T13:45:18.236Z,90.47
2019-01-03T13:47:48.469Z,110.07
2019-01-03T13:50:18.710Z,122.50
2019-01-03T13:52:49.022Z,90.77
2019-01-03T13:55:19.242Z,44.67
2019-01-03T13:57:49.491Z,54.47
2019-01-03T14:00:19.841Z,29.40
2019-01-03T14:02:50.044Z,153.90
2019-01-03T14:05:20.266Z,107.13
2019-01-03T14:07:51.543Z,127.70
2019-01-03T14:10:21.817Z,45.83
2019-01-03T14:12:51.974Z,164.63
2019-01-03T14:15:22.191Z,100.90
2019-01-03T14:17:52.474Z,139.97
2019-01-03T14:20:23.007Z,318.03
2019-01-03T14:22:53.275Z,45.87
2019-01-03T14:25:23.570Z,105.10
2019-01-03T14:27:53.798Z,173.53
2019-01-03T14:30:23.954Z,274.20
2019-01-03T14:32:54.127Z,236.27
2019-01-03T14:35:24.357Z,127.20
2019-01-03T14:37:54.587Z,168.93
2019-01-03T14:40:24.854Z,319.70
2019-01-03T14:42:55.107Z,157.33
2019-01-03T14:45:25.289Z,96.77
2019-01-03T14:47:55.505Z,184.07
2019-01-03T14:50:25.801Z,201.80
2019-01-03T14:52:56.053Z,100.20
2019-01-03T14:55:26.478Z,81.47
2019-01-03T14:57:56.708Z,76.27
2019-01-03T15:00:26.863Z,104.90
2019-01-03T15:02:57.331Z,120.00
2019-01-03T15:05:27.533Z,155.27
2019-01-03T15:07:58.862Z,80.53
2019-01-03T15:10:29.030Z,100.20
2019-01-03T15:12:59.205Z,148.83
2019-01-03T15:15:29.495Z,117.83
2019-01-03T15:17:59.661Z,73.13
2019-01-03T15:20:29.945Z,57.37
2019-01-03T15:23:00.174Z,91.53
2019-01-03T15:25:30.508Z,77.00
2019-01-03T15:28:00.846Z,64.93
2019-01-03T15:30:31.150Z,79.27
2019-01-03T15:33:01.333Z,50.23
2019-01-03T15:35:31.651Z,24.80
2019-01-03T15:38:01.905Z,46.93
2019-01-03T15:40:32.131Z,37.73
2019-01-03T15:43:03.341Z,36.63
2019-01-03T15:45:33.558Z,40.00
2019-01-03T15:48:03.791Z,31.20
2019-01-03T15:50:33.969Z,47.70
2019-01-03T15:53:04.282Z,32.07
2019-01-03T15:55:34.447Z,32.00
2019-01-03T15:58:07.629Z,26.50
2019-01-03T16:00:37.802Z,36.70
2019-01-03T16:03:10.166Z,30.33
2019-01-03T16:05:40.322Z,23.10
2019-01-03T16:08:10.506Z,32.73
2019-01-03T16:10:40.785Z,23.10
2019-01-03T16:13:11.165Z,20.83
2019-01-03T16:15:41.685Z,19.67
2019-01-03T16:18:11.971Z,29.23
2019-01-03T16:20:42.295Z,20.57
2019-01-03T16:23:12.678Z,18.30
2019-01-03T16:25:43.937Z,24.00
2019-01-03T16:28:14.123Z,21.20
2019-01-03T16:30:44.337Z,24.90
2019-01-03T16:33:14.525Z,30.23
2019-01-03T16:35:47.948Z,26.37
2019-01-03T16:38:16.561Z,39.30
2019-01-03T16:40:46.795Z,26.10
2019-01-03T16:43:18.102Z,28.93
2019-01-03T16:45:48.365Z,22.53
2019-01-03T16:48:18.541Z,25.80
2019-01-03T16:50:48.749Z,24.03
2019-01-03T16:53:18.926Z,22.23
2019-01-03T16:55:49.184Z,24.27
2019-01-03T16:58:19.425Z,31.90
2019-01-03T17:00:49.658Z,25.87
2019-01-03T17:03:19.888Z,27.50
2019-01-03T17:05:50.084Z,23.73
2019-01-03T17:08:20.221Z,23.23
2019-01-03T17:10:50.381Z,28.30
2019-01-03T17:13:20.578Z,24.77
2019-01-03T17:15:50.753Z,30.13
2019-01-03T17:18:21.123Z,21.80
2019-01-03T17:20:51.370Z,27.07
2019-01-03T17:23:21.687Z,23.30
2019-01-03T17:25:51.878Z,23.20
2019-01-03T17:28:22.446Z,16.43
2019-01-03T17:30:52.705Z,18.03
2019-01-03T17:33:24.151Z,15.50
2019-01-03T17:35:54.729Z,13.20
2019-01-03T17:38:24.883Z,16.17
2019-01-03T17:40:55.162Z,18.87
2019-01-03T17:43:26.185Z,18.33
2019-01-03T17:45:56.554Z,16.33
2019-01-03T17:48:26.743Z,18.63
2019-01-03T17:50:56.904Z,13.20
2019-01-03T17:53:27.050Z,15.60
2019-01-03T17:55:57.261Z,20.07
2019-01-03T17:58:27.826Z,51.90
2019-01-03T18:00:58.089Z,131.70
2019-01-03T18:03:28.773Z,318.70
2019-01-03T18:05:58.972Z,182.17
2019-01-03T18:08:29.145Z,234.20
2019-01-03T18:10:59.365Z,345.87
2019-01-03T18:13:29.517Z,148.20
2019-01-03T18:15:59.790Z,116.67
2019-01-03T18:18:29.982Z,304.73
2019-01-03T18:21:00.215Z,49.80
2019-01-03T18:23:30.537Z,122.07
2019-01-03T18:26:00.798Z,163.00
2019-01-03T18:28:30.963Z,195.27
2019-01-03T18:31:01.205Z,455.93
2019-01-03T18:33:31.434Z,92.07
2019-01-03T18:36:01.742Z,157.23
2019-01-03T18:38:32.013Z,537.53
2019-01-03T18:41:02.238Z,214.97
2019-01-03T18:43:32.582Z,115.50
2019-01-03T18:46:02.833Z,72.60
2019-01-03T18:48:32.992Z,77.87
2019-01-03T18:51:03.257Z,49.70
2019-01-03T18:53:33.567Z,50.63
2019-01-03T18:56:03.958Z,47.57
2019-01-03T18:58:34.502Z,353.83
2019-01-03T19:01:04.822Z,358.43
2019-01-03T19:03:35.081Z,423.43
2019-01-03T19:06:05.322Z,282.13
2019-01-03T19:08:35.514Z,68.40
2019-01-03T19:11:06.086Z,229.13
2019-01-03T19:13:36.345Z,200.03
2019-01-03T19:16:06.586Z,144.60
2019-01-03T19:18:36.811Z,60.40
2019-01-03T19:21:08.794Z,54.70
2019-01-03T19:23:38.998Z,85.87
2019-01-03T19:26:12.536Z,78.60
2019-01-03T19:28:46.187Z,82.43
2019-01-03T19:31:16.511Z,32.87
2019-01-03T19:33:46.706Z,76.57
2019-01-03T19:36:19.693Z,127.33
2019-01-03T19:38:50.039Z,51.03
2019-01-03T19:41:20.289Z,23.47
2019-01-03T19:43:50.525Z,20.37
2019-01-03T19:46:20.726Z,137.47
2019-01-03T19:48:52.001Z,92.17
2019-01-03T19:51:22.189Z,235.00
2019-01-03T19:53:52.588Z,38.03
2019-01-03T19:56:22.827Z,56.87
2019-01-03T19:58:53.065Z,150.40
2019-01-03T20:01:23.257Z,171.37
2019-01-03T20:03:53.510Z,96.77
2019-01-03T20:06:24.043Z,175.43
2019-01-03T20:08:54.314Z,93.50
2019-01-03T20:11:24.533Z,90.80
2019-01-03T20:13:54.722Z,88.43
2019-01-03T20:16:25.053Z,130.80
2019-01-03T20:18:55.242Z,158.40
2019-01-03T20:21:25.473Z,90.17
2019-01-03T20:23:55.633Z,34.57
2019-01-03T20:26:25.815Z,31.37
2019-01-03T20:28:56.127Z,110.53
2019-01-03T20:31:26.327Z,43.03
2019-01-03T20:33:56.660Z,77.97
2019-01-03T20:36:26.922Z,122.47
2019-01-03T20:38:57.226Z,149.47
2019-01-03T20:41:27.482Z,51.37
2019-01-03T20:43:57.922Z,65.07
2019-01-03T20:46:28.223Z,107.63
2019-01-03T20:48:58.406Z,33.67
2019-01-03T20:51:28.700Z,30.30
2019-01-03T20:53:59.047Z,50.10
2019-01-03T20:56:29.298Z,78.97
2019-01-03T20:58:59.654Z,61.60
2019-01-03T21:01:30.225Z,97.97
2019-01-03T21:04:01.500Z,44.27
2019-01-03T21:06:31.975Z,22.73
2019-01-03T21:09:02.269Z,54.17
2019-01-03T21:11:34.149Z,31.50
2019-01-03T21:14:04.520Z,57.63
2019-01-03T21:16:34.876Z,70.33
2019-01-03T21:19:05.057Z,52.87
2019-01-03T21:21:35.341Z,22.53
2019-01-03T21:24:05.585Z,18.93
2019-01-03T21:26:36.758Z,25.00
2019-01-03T21:29:07.739Z,26.37
2019-01-03T21:31:37.938Z,41.93
2019-01-03T21:34:09.095Z,26.27
2019-01-03T21:36:39.257Z,38.67
2019-01-03T21:39:09.666Z,30.00
2019-01-03T21:41:39.974Z,24.33
2019-01-03T21:44:10.381Z,22.60
2019-01-03T21:46:42.961Z,27.50
2019-01-03T21:49:13.188Z,21.13
2019-01-03T21:51:43.538Z,33.87
2019-01-03T21:54:13.682Z,17.63
2019-01-03T21:56:44.166Z,30.30
2019-01-03T21:59:14.331Z,31.00
2019-01-03T22:01:44.863Z,27.77
2019-01-03T22:04:15.107Z,22.17
2019-01-03T22:06:45.324Z,23.20
2019-01-03T22:09:15.683Z,23.67
2019-01-03T22:11:45.830Z,35.50
2019-01-03T22:14:16.105Z,55.17
2019-01-03T22:16:47.210Z,41.07
2019-01-03T22:19:17.474Z,31.17
2019-01-03T22:21:47.782Z,22.30
2019-01-03T22:24:18.085Z,31.80
2019-01-03T22:26:48.234Z,32.50
2019-01-03T22:29:18.467Z,20.17
2019-01-03T22:31:48.942Z,25.40
2019-01-03T22:34:19.231Z,20.73
2019-01-03T22:36:49.414Z,24.87
2019-01-03T22:39:19.576Z,19.03
2019-01-03T22:41:49.958Z,13.87
2019-01-03T22:44:20.128Z,15.63
2019-01-03T22:46:52.003Z,15.67
2019-01-03T22:49:22.463Z,13.60
2019-01-03T22:51:52.610Z,14.40
2019-01-03T22:54:22.934Z,17.73
2019-01-03T22:56:53.214Z,25.20
2019-01-03T22:59:23.526Z,22.73
2019-01-03T23:01:53.661Z,16.30
2019-01-03T23:04:23.901Z,19.40
2019-01-03T23:06:54.187Z,16.20
2019-01-03T23:09:25.438Z,21.43
2019-01-03T23:11:55.739Z,14.70
2019-01-03T23:14:26.058Z,17.73
2019-01-03T23:16:56.431Z,12.03
2019-01-03T23:19:28.678Z,15.30
2019-01-03T23:21:58.990Z,21.57
2019-01-03T23:24:30.414Z,17.23
2019-01-03T23:27:01.021Z,16.17
2019-01-03T23:29:31.471Z,16.60
2019-01-03T23:32:01.831Z,24.23
2019-01-03T23:34:32.010Z,13.57
2019-01-03T23:37:02.210Z,11.07
2019-01-03T23:39:32.377Z,13.67
2019-01-03T23:42:02.571Z,16.43
2019-01-03T23:44:32.878Z,13.83
2019-01-03T23:47:03.266Z,11.87
2019-01-03T23:49:33.514Z,13.83
2019-01-03T23:52:04.087Z,9.93
2019-01-03T23:54:35.779Z,15.33
2019-01-03T23:57:06.091Z,11.47
2019-01-03T23:59:36.947Z,12.33
